Time;durP1;ratioP1;P1;durP2;ratioP2;P2;SDS_P1;SDS_P2;PMS_P1;PMS_P2;Temp;Humidity;BMP_temperature;BMP_pressure;BME280_temperature;BME280_humidity;BME280_pressure;Samples;Min_cycle;Max_cycle;Signal;HPM_P1;HPM_P2
2022/12/27 00:00:50;;;;;;;14.98;8.03;;;;;;;12.74;100.00;98996.91;4476419;78;28526;-73
2022/12/27 00:06:54;;;;;;;11.80;6.95;;;;;;;12.61;100.00;98996.70;4467084;78;28554;-73
2022/12/27 00:12:57;;;;;;;13.00;7.03;;;;;;;12.61;100.00;98996.70;4461758;78;28504;-73
2022/12/27 00:19:00;;;;;;;10.08;6.15;;;;;;;12.33;100.00;98987.10;4467787;78;28624;-73
2022/12/27 00:25:01;;;;;;;8.58;5.47;;;;;;;12.08;100.00;98982.09;4436256;78;28515;-73
2022/12/27 00:31:07;;;;;;;7.87;4.72;;;;;;;11.98;100.00;98980.80;4455791;78;28499;-73
2022/12/27 00:37:08;;;;;;;8.20;4.72;;;;;;;12.00;100.00;98971.15;4457833;78;28528;-74
2022/12/27 00:43:09;;;;;;;6.05;4.05;;;;;;;12.09;100.00;98958.95;4444969;78;28567;-74
2022/12/27 00:49:10;;;;;;;6.33;3.85;;;;;;;12.06;100.00;98956.72;4471152;78;28516;-73
2022/12/27 00:55:13;;;;;;;6.05;4.17;;;;;;;12.09;100.00;98958.12;4457937;78;28474;-73
2022/12/27 01:01:19;;;;;;;5.33;3.62;;;;;;;12.04;100.00;98952.66;4443114;78;28542;-74
2022/12/27 01:07:20;;;;;;;6.22;4.30;;;;;;;12.51;100.00;98929.96;4468686;78;28520;-74
2022/12/27 01:13:21;;;;;;;7.83;3.80;;;;;;;12.48;100.00;98929.91;4453629;78;28563;-74
2022/12/27 01:19:22;;;;;;;6.70;3.80;;;;;;;12.78;99.87;98937.34;4478542;78;28525;-73
2022/12/27 01:25:24;;;;;;;4.67;3.47;;;;;;;12.81;99.12;98930.92;4470604;78;28563;-73
2022/12/27 01:31:27;;;;;;;6.28;3.55;;;;;;;12.64;98.81;98922.86;4456511;78;28602;-72
2022/12/27 01:37:28;;;;;;;5.05;3.40;;;;;;;12.71;98.98;98915.94;4457790;78;28587;-73
2022/12/27 01:43:37;;;;;;;5.03;3.20;;;;;;;12.90;97.77;98911.62;4447576;78;28539;-73
2022/12/27 01:49:39;;;;;;;5.47;3.08;;;;;;;12.97;97.22;98901.47;4467423;77;28593;-75
2022/12/27 01:55:59;;;;;;;5.22;3.67;;;;;;;13.15;95.36;98898.16;4458777;78;28492;-74
2022/12/27 02:02:00;;;;;;;3.90;3.02;;;;;;;13.32;95.46;98914.27;4459659;78;28496;-74
2022/12/27 02:08:12;;;;;;;5.58;3.17;;;;;;;13.41;94.60;98911.97;4458502;78;28567;-73
2022/12/27 02:14:15;;;;;;;4.95;3.17;;;;;;;13.44;94.45;98910.96;4475327;78;28564;-74
2022/12/27 02:20:21;;;;;;;5.20;3.25;;;;;;;13.51;93.93;98912.91;4457021;78;28464;-74
2022/12/27 02:26:52;;;;;;;4.33;2.85;;;;;;;13.49;93.44;98913.70;4446124;78;28513;-74
2022/12/27 02:32:56;;;;;;;4.33;2.80;;;;;;;13.34;93.42;98914.86;4433200;78;28499;-73
2022/12/27 02:38:59;;;;;;;4.20;2.30;;;;;;;13.11;94.50;98920.26;4442722;78;28529;-74
2022/12/27 02:58:02;;;;;;;1.50;1.10;;;;;;;12.89;95.17;98939.66;4478256;78;28514;-74
2022/12/27 03:04:13;;;;;;;2.02;1.10;;;;;;;12.79;95.43;98957.34;4473583;78;28547;-74
2022/12/27 03:17:03;;;;;;;2.70;1.40;;;;;;;12.68;94.09;98987.92;4477372;78;28544;-74
2022/12/27 03:38:01;;;;;;;3.60;1.80;;;;;;;12.52;98.68;99012.48;4473885;78;28504;-74
2022/12/27 03:48:27;;;;;;;2.33;1.57;;;;;;;11.82;100.00;99036.82;4463914;78;43191;-74
2022/12/27 03:54:34;;;;;;;2.15;1.60;;;;;;;11.77;100.00;99054.22;4487796;78;28539;-74
2022/12/27 04:00:35;;;;;;;2.80;1.95;;;;;;;11.50;100.00;99057.42;4452644;78;28529;-74
2022/12/27 04:06:36;;;;;;;4.12;2.40;;;;;;;11.25;100.00;99084.08;4461571;78;28518;-74
2022/12/27 04:37:56;;;;;;;4.45;2.60;;;;;;;11.24;100.00;99112.85;4460857;78;28556;-74
2022/12/27 04:56:45;;;;;;;5.05;3.00;;;;;;;11.53;100.00;99125.08;4453464;78;28524;-74
2022/12/27 05:02:46;;;;;;;5.03;2.80;;;;;;;11.32;100.00;99144.52;4465175;78;28551;-74
2022/12/27 05:15:07;;;;;;;3.22;1.92;;;;;;;10.79;100.00;99194.08;4463531;78;28531;-74
2022/12/27 05:21:08;;;;;;;1.80;1.30;;;;;;;10.56;100.00;99197.77;4466791;78;28514;-74
2022/12/27 05:27:10;;;;;;;1.57;0.93;;;;;;;10.65;100.00;99205.02;4452003;78;28578;-74
2022/12/27 05:33:11;;;;;;;1.50;0.82;;;;;;;10.48;100.00;99214.23;4467803;78;28490;-73
2022/12/27 05:39:12;;;;;;;1.80;0.88;;;;;;;10.31;100.00;99251.09;4466501;78;28536;-73
2022/12/27 05:45:14;;;;;;;1.57;0.70;;;;;;;10.71;100.00;99246.31;4467454;78;28624;-75
2022/12/27 05:51:18;;;;;;;0.98;0.65;;;;;;;10.59;100.00;99259.69;4468031;78;28535;-75
2022/12/27 05:57:19;;;;;;;2.65;0.90;;;;;;;10.69;100.00;99278.00;4456340;78;28504;-74
2022/12/27 06:03:21;;;;;;;1.87;1.30;;;;;;;10.41;100.00;99294.97;4466150;78;28521;-74
2022/12/27 06:09:22;;;;;;;2.27;1.40;;;;;;;10.58;100.00;99314.52;4449825;78;28512;-74
2022/12/27 06:15:23;;;;;;;2.00;1.17;;;;;;;10.27;100.00;99336.41;4446384;78;28531;-74
2022/12/27 06:21:24;;;;;;;2.17;1.45;;;;;;;9.87;100.00;99353.70;4445705;78;29099;-73
2022/12/27 06:27:26;;;;;;;3.20;1.40;;;;;;;10.12;100.00;99373.02;4450424;78;28623;-73
2022/12/27 06:33:28;;;;;;;2.35;0.90;;;;;;;9.65;100.00;99395.69;4467282;78;28548;-73
2022/12/27 06:39:29;;;;;;;1.45;0.85;;;;;;;9.23;100.00;99442.25;4497688;77;28609;-73
2022/12/27 06:45:30;;;;;;;1.98;0.60;;;;;;;9.14;100.00;99461.26;4505645;77;28540;-72
2022/12/27 06:51:32;;;;;;;1.25;0.60;;;;;;;8.86;91.17;99491.03;4382735;80;28514;-72
2022/12/27 06:57:33;;;;;;;2.50;0.80;;;;;;;8.51;88.82;99490.75;4365687;80;28528;-71
2022/12/27 07:03:36;;;;;;;1.72;0.45;;;;;;;8.02;90.19;99506.94;4377730;80;28569;-71
2022/12/27 07:09:38;;;;;;;2.50;0.70;;;;;;;8.63;87.18;99556.60;4378060;80;28565;-71
2022/12/27 07:15:39;;;;;;;4.75;0.90;;;;;;;8.60;87.95;99568.58;4380619;78;28535;-70
2022/12/27 07:21:40;;;;;;;3.55;0.95;;;;;;;8.67;85.50;99569.08;4386748;79;28627;-75
2022/12/27 07:27:41;;;;;;;3.75;0.90;;;;;;;8.82;84.54;99592.52;4360060;79;28497;-78
2022/12/27 07:33:43;;;;;;;8.33;1.45;;;;;;;8.61;85.19;99616.30;4454052;78;28457;-77
2022/12/27 07:39:44;;;;;;;5.12;1.00;;;;;;;9.02;84.31;99610.47;4435897;78;28590;-77
2022/12/27 07:45:45;;;;;;;4.40;0.93;;;;;;;9.29;84.99;99612.61;4369818;78;28582;-78
2022/12/27 07:51:46;;;;;;;6.40;1.30;;;;;;;8.91;85.97;99635.53;4450446;78;28505;-74
2022/12/27 07:57:49;;;;;;;4.45;1.05;;;;;;;8.70;86.38;99638.39;4427059;78;28583;-74
2022/12/27 08:03:50;;;;;;;4.30;1.02;;;;;;;8.82;85.89;99653.34;4416061;79;28623;-75
2022/12/27 08:09:52;;;;;;;8.45;1.77;;;;;;;8.88;84.72;99674.80;4432318;79;28486;-75
2022/12/27 08:15:54;;;;;;;3.47;1.40;;;;;;;9.15;83.27;99690.94;4415539;79;28575;-75
2022/12/27 08:21:56;;;;;;;6.33;1.70;;;;;;;8.93;82.74;99706.37;4491649;77;28535;-75
2022/12/27 08:28:04;;;;;;;6.25;1.75;;;;;;;8.83;83.52;99715.33;4512062;77;28626;-78
2022/12/27 08:34:06;;;;;;;7.75;1.95;;;;;;;9.43;83.83;99730.67;4521773;77;28526;-77
2022/12/27 08:40:08;;;;;;;8.90;2.25;;;;;;;9.53;84.41;99732.92;4482728;77;28547;-78
2022/12/27 08:46:09;;;;;;;9.33;2.20;;;;;;;9.54;82.68;99735.95;4444236;78;28930;-79
2022/12/27 08:52:10;;;;;;;5.95;1.98;;;;;;;9.55;82.14;99744.30;4454967;78;28503;-79
2022/12/27 08:58:11;;;;;;;7.17;1.67;;;;;;;9.48;81.33;99754.52;4458958;78;28611;-80
2022/12/27 09:04:13;;;;;;;5.78;1.85;;;;;;;9.60;79.49;99764.13;4467041;78;29079;-79
2022/12/27 09:10:14;;;;;;;6.12;2.00;;;;;;;9.53;80.00;99769.16;4462406;78;28494;-81
2022/12/27 09:16:19;;;;;;;6.85;1.82;;;;;;;9.94;80.06;99768.64;4421285;78;28511;-76
2022/12/27 09:22:20;;;;;;;8.75;2.12;;;;;;;10.26;75.64;99780.87;4520968;77;28545;-76
2022/12/27 09:28:26;;;;;;;7.50;2.15;;;;;;;10.24;74.63;99789.67;4418001;79;28644;-76
2022/12/27 09:34:27;;;;;;;9.95;2.00;;;;;;;10.00;71.20;99797.37;4390372;79;28510;-75
2022/12/27 09:40:30;;;;;;;5.45;1.32;;;;;;;9.66;71.72;99797.38;4507776;77;28565;-76
2022/12/27 09:46:50;;;;;;;5.47;1.82;;;;;;;8.31;69.05;99806.34;4495650;77;28772;-76
2022/12/27 09:52:56;;;;;;;7.90;2.33;;;;;;;9.40;71.19;99798.19;4443912;78;28543;-75
2022/12/27 09:59:03;;;;;;;5.87;1.60;;;;;;;9.38;69.72;99800.25;4443870;78;28485;-77
2022/12/27 10:05:08;;;;;;;6.00;1.60;;;;;;;9.53;69.27;99804.06;4440675;78;28532;-76
2022/12/27 10:11:37;;;;;;;9.55;1.77;;;;;;;9.93;69.00;99803.26;4432902;78;28554;-79
2022/12/27 10:17:54;;;;;;;6.92;1.57;;;;;;;9.68;68.88;99793.97;4373709;79;28541;-79
2022/12/27 10:30:14;;;;;;;9.10;2.45;;;;;;;9.89;66.70;99814.93;4360119;79;28580;-82
2022/12/27 10:36:20;;;;;;;5.23;1.67;;;;;;;9.94;65.03;99795.50;4395133;79;28459;-80
2022/12/27 10:42:27;;;;;;;5.70;2.05;;;;;;;10.49;64.43;99796.56;4399986;79;28533;-79
2022/12/27 10:48:30;;;;;;;7.17;2.00;;;;;;;10.25;65.12;99795.35;4428770;78;28563;-78
2022/12/27 10:54:32;;;;;;;4.45;1.77;;;;;;;10.55;64.89;99794.89;4487430;78;28590;-81
2022/12/27 11:00:33;;;;;;;5.55;1.70;;;;;;;10.29;62.45;99797.91;4480149;78;28511;-79
2022/12/27 11:06:34;;;;;;;8.85;1.98;;;;;;;10.02;62.94;99789.39;4483702;78;28575;-83
2022/12/27 11:12:35;;;;;;;7.70;1.85;;;;;;;10.31;62.52;99786.46;4472862;78;28527;-83
2022/12/27 11:18:40;;;;;;;8.45;1.60;;;;;;;10.38;62.11;99787.78;4488874;78;28545;-88
2022/12/27 11:24:46;;;;;;;7.95;1.47;;;;;;;10.10;61.50;99780.30;4456030;78;28562;-86
2022/12/27 11:30:56;;;;;;;5.67;1.52;;;;;;;9.93;61.01;99794.66;4482358;78;28553;-86
2022/12/27 11:37:33;;;;;;;9.48;1.40;;;;;;;10.06;60.98;99790.34;4491865;78;28541;-87
2022/12/27 11:43:26;;;;;;;6.30;1.90;;;;;;;10.13;61.55;99793.31;4478713;78;28536;-78
2022/12/27 11:49:35;;;;;;;6.05;1.87;;;;;;;10.30;64.09;99794.19;4481464;78;28528;-77
2022/12/27 11:56:06;;;;;;;4.62;1.60;;;;;;;10.57;63.10;99798.19;4482192;78;28563;-77
2022/12/27 12:02:17;;;;;;;6.20;2.02;;;;;;;10.48;62.17;99786.01;4487229;78;28520;-77
2022/12/27 12:08:28;;;;;;;9.50;2.70;;;;;;;10.60;60.94;99785.14;4474024;78;28587;-80
2022/12/27 12:14:51;;;;;;;7.22;2.65;;;;;;;10.05;62.19;99793.52;4488481;78;28564;-85
2022/12/27 12:20:56;;;;;;;9.48;2.80;;;;;;;10.26;62.48;99779.53;4485549;78;28551;-84
2022/12/27 12:27:23;;;;;;;8.80;2.80;;;;;;;10.16;61.86;99786.70;4487571;78;28562;-86
2022/12/27 12:33:31;;;;;;;9.38;2.87;;;;;;;10.27;61.04;99780.67;4491018;78;28518;-86
2022/12/27 12:39:45;;;;;;;8.45;3.30;;;;;;;10.14;61.88;99799.49;4495044;77;28488;-83
2022/12/27 12:46:23;;;;;;;7.75;2.83;;;;;;;9.88;62.22;99801.19;4486129;78;28565;-85
2022/12/27 12:52:43;;;;;;;9.78;2.95;;;;;;;9.82;62.54;99786.73;4490225;78;28550;-84
2022/12/27 12:58:48;;;;;;;7.40;2.20;;;;;;;9.96;61.95;99795.61;4486462;78;28523;-88
2022/12/27 13:05:25;;;;;;;6.90;2.45;;;;;;;9.79;61.08;99810.48;4491423;78;28506;-84
2022/12/27 13:11:33;;;;;;;4.42;1.90;;;;;;;9.68;60.47;99803.86;4470299;78;28622;-88
2022/12/27 13:17:56;;;;;;;6.50;2.12;;;;;;;9.59;60.03;99796.04;4484468;78;28561;-85
2022/12/27 13:24:17;;;;;;;7.42;2.37;;;;;;;9.18;60.80;99799.17;4477328;78;28562;-85
2022/12/27 13:30:24;;;;;;;5.22;1.77;;;;;;;8.94;61.23;99800.55;4479083;78;28577;-82
2022/12/27 13:36:29;;;;;;;5.90;2.00;;;;;;;8.91;61.22;99804.98;4485334;78;28532;-83
2022/12/27 13:42:43;;;;;;;6.58;2.12;;;;;;;9.15;60.26;99817.52;4492986;78;28496;-82
2022/12/27 13:49:00;;;;;;;8.70;2.60;;;;;;;9.24;60.02;99819.53;4471980;78;28544;-77
2022/12/27 13:55:30;;;;;;;5.72;2.20;;;;;;;9.04;60.10;99822.98;4466096;78;28540;-77
2022/12/27 14:01:50;;;;;;;5.10;2.45;;;;;;;9.10;60.61;99829.39;4466393;78;28552;-76
2022/12/27 14:08:00;;;;;;;5.78;2.72;;;;;;;9.13;60.57;99841.89;4448912;78;28539;-76
2022/12/27 14:14:02;;;;;;;9.05;2.52;;;;;;;8.99;60.34;99838.33;4440942;78;28508;-76
2022/12/27 14:20:22;;;;;;;6.85;2.30;;;;;;;8.99;60.42;99846.88;4503323;77;28573;-76
2022/12/27 14:27:01;;;;;;;4.70;2.00;;;;;;;8.59;59.49;99857.76;4431585;78;28612;-75
2022/12/27 14:33:23;;;;;;;6.85;1.95;;;;;;;9.04;58.77;99865.90;4410360;78;28543;-76
2022/12/27 14:39:47;;;;;;;5.72;1.92;;;;;;;9.08;58.14;99867.67;4434071;78;28589;-84
2022/12/27 14:46:13;;;;;;;7.00;2.72;;;;;;;8.91;58.83;99876.89;4354074;77;28545;-82
2022/12/27 14:52:23;;;;;;;5.75;2.33;;;;;;;8.91;59.07;99891.64;4529168;77;28555;-79
2022/12/27 14:58:37;;;;;;;8.08;3.17;;;;;;;9.00;59.23;99882.06;4409852;78;28656;-80
2022/12/27 15:04:57;;;;;;;8.23;2.80;;;;;;;8.93;60.03;99888.24;4526566;77;28592;-77
2022/12/27 15:11:05;;;;;;;6.15;2.42;;;;;;;8.91;60.04;99898.34;4453066;78;28605;-77
2022/12/27 15:17:16;;;;;;;8.55;2.92;;;;;;;8.87;59.57;99893.58;4421245;80;28535;-76
2022/12/27 15:23:23;;;;;;;6.85;2.75;;;;;;;8.86;59.36;99901.31;4430880;78;28509;-83
2022/12/27 15:29:44;;;;;;;11.03;3.08;;;;;;;8.87;59.16;99911.01;4528642;77;28522;-79
2022/12/27 15:36:08;;;;;;;5.58;2.80;;;;;;;8.90;59.35;99910.60;4521149;77;28505;-79
2022/12/27 15:42:39;;;;;;;10.18;3.15;;;;;;;8.90;59.41;99918.15;4515349;77;28525;-77
2022/12/27 15:48:46;;;;;;;6.12;2.77;;;;;;;8.85;59.30;99935.33;4517241;78;28588;-78
2022/12/27 15:55:11;;;;;;;8.43;3.08;;;;;;;8.70;59.32;99927.41;4487153;77;28584;-76
2022/12/27 16:01:27;;;;;;;7.42;2.58;;;;;;;8.74;59.38;99927.84;4481610;77;28538;-78
2022/12/27 16:07:46;;;;;;;7.62;2.92;;;;;;;8.74;59.21;99925.97;4504499;77;28530;-80
2022/12/27 16:13:48;;;;;;;9.28;2.77;;;;;;;8.47;59.83;99930.30;4501216;77;28494;-76
2022/12/27 16:20:11;;;;;;;8.95;3.27;;;;;;;8.33;60.63;99929.38;4436125;78;28583;-87
2022/12/27 16:26:18;;;;;;;6.83;2.98;;;;;;;8.01;60.95;99927.56;4452095;78;28554;-77
2022/12/27 16:32:22;;;;;;;7.12;3.22;;;;;;;7.61;61.88;99952.94;4425795;79;28567;-75
2022/12/27 16:38:23;;;;;;;6.62;3.00;;;;;;;7.54;62.13;99976.92;4401500;79;28537;-77
2022/12/27 16:44:28;;;;;;;7.17;3.12;;;;;;;7.67;62.03;99984.28;4522549;77;29000;-80
2022/12/27 16:50:48;;;;;;;8.68;3.72;;;;;;;7.81;62.12;99993.83;4429433;79;28649;-76
2022/12/27 16:56:51;;;;;;;7.53;3.70;;;;;;;7.75;62.23;99988.69;4405235;79;28544;-77
2022/12/27 17:02:52;;;;;;;9.90;4.10;;;;;;;7.70;62.50;99994.28;4522526;77;28586;-75
2022/12/27 17:09:12;;;;;;;8.78;3.70;;;;;;;7.65;62.55;99998.87;4431886;78;28564;-73
2022/12/27 17:15:14;;;;;;;7.37;3.55;;;;;;;7.71;62.71;99986.61;4401206;79;28602;-78
2022/12/27 17:21:22;;;;;;;8.90;4.00;;;;;;;7.36;63.15;99989.38;4518750;77;28569;-77
2022/12/27 17:27:49;;;;;;;7.25;3.15;;;;;;;7.39;63.15;99982.83;4523395;77;28600;-77
2022/12/27 17:33:57;;;;;;;7.58;3.27;;;;;;;7.33;63.20;99995.59;4425722;79;28592;-75
2022/12/27 17:40:05;;;;;;;8.25;3.40;;;;;;;7.57;62.87;99991.78;4401382;79;28554;-78
2022/12/27 17:46:10;;;;;;;9.00;3.42;;;;;;;7.70;62.46;99987.10;4409230;78;28544;-76
2022/12/27 17:58:34;;;;;;;8.65;3.85;;;;;;;7.62;62.23;100004.11;4298701;81;28621;-73
2022/12/27 18:04:38;;;;;;;6.95;3.12;;;;;;;7.66;62.13;100012.07;4431765;79;28600;-72
2022/12/27 18:10:40;;;;;;;8.85;3.33;;;;;;;7.65;62.00;100022.45;4324525;80;28543;-73
2022/12/27 18:16:41;;;;;;;7.33;3.45;;;;;;;7.70;61.82;100017.88;4325230;80;28510;-72
2022/12/27 18:22:43;;;;;;;10.05;3.70;;;;;;;7.61;61.62;100014.99;4324018;81;28561;-71
2022/12/27 18:28:44;;;;;;;8.00;3.30;;;;;;;7.54;61.18;100021.08;4345176;81;28524;-71
2022/12/27 18:34:48;;;;;;;8.75;3.25;;;;;;;7.74;61.29;100024.51;4351116;80;28524;-71
2022/12/27 18:41:02;;;;;;;7.65;3.35;;;;;;;7.61;61.09;100026.54;4338737;80;28546;-72
2022/12/27 18:47:04;;;;;;;8.45;3.37;;;;;;;7.67;61.06;100023.63;4354929;80;28503;-72
2022/12/27 18:53:08;;;;;;;9.75;3.45;;;;;;;7.70;61.10;100033.95;4415688;78;28569;-71
2022/12/27 18:59:25;;;;;;;8.17;3.53;;;;;;;7.61;61.26;100029.22;4532255;77;28533;-71
2022/12/27 19:05:29;;;;;;;7.97;3.60;;;;;;;7.75;61.24;100040.08;4532010;78;28522;-70
2022/12/27 19:11:31;;;;;;;9.63;3.65;;;;;;;7.67;61.29;100041.84;4527219;77;28560;-70
2022/12/27 19:17:34;;;;;;;9.18;3.25;;;;;;;7.78;61.50;100041.03;4529385;77;28497;-72
2022/12/27 19:23:38;;;;;;;6.92;3.42;;;;;;;7.94;61.50;100055.55;4500712;77;28971;-71
2022/12/27 19:29:52;;;;;;;8.35;3.62;;;;;;;7.75;61.46;100064.98;4520540;77;28514;-71
2022/12/27 19:35:53;;;;;;;9.83;3.55;;;;;;;7.81;62.01;100061.57;4529882;78;28533;-71
2022/12/27 19:41:58;;;;;;;8.48;3.62;;;;;;;7.96;61.94;100063.38;4510507;78;28537;-70
2022/12/27 19:48:01;;;;;;;9.85;3.60;;;;;;;8.06;61.96;100069.78;4488822;77;28659;-71
2022/12/27 19:54:05;;;;;;;9.05;3.70;;;;;;;8.01;62.55;100071.69;4495012;77;28565;-71
2022/12/27 20:00:15;;;;;;;7.95;3.40;;;;;;;7.87;63.12;100067.20;4500611;77;28600;-71
2022/12/27 20:06:16;;;;;;;8.05;3.42;;;;;;;7.60;64.05;100082.43;4485061;77;28511;-71
2022/12/27 20:12:21;;;;;;;8.05;3.67;;;;;;;7.49;64.29;100075.69;4420329;78;28543;-71
2022/12/27 20:18:23;;;;;;;9.93;3.67;;;;;;;7.63;64.37;100076.69;4424726;79;28811;-71
2022/12/27 20:24:27;;;;;;;9.78;3.70;;;;;;;7.73;64.14;100081.75;4427877;78;29025;-71
2022/12/27 20:30:33;;;;;;;9.63;3.90;;;;;;;7.87;63.81;100084.08;4420790;80;28513;-71
2022/12/27 20:36:31;;;;;;;7.95;3.83;;;;;;;7.59;65.05;100093.31;4434465;79;28532;-73
2022/12/27 20:42:33;;;;;;;10.75;4.15;;;;;;;7.59;65.07;100095.45;4484347;77;28586;-70
2022/12/27 20:48:38;;;;;;;13.65;4.70;;;;;;;7.60;65.07;100102.99;4483251;77;28522;-70
2022/12/27 20:54:42;;;;;;;10.50;4.33;;;;;;;7.71;65.06;100109.74;4482507;77;28549;-71
2022/12/27 21:00:42;;;;;;;8.40;4.08;;;;;;;7.48;65.48;100121.34;4477042;77;28523;-70
2022/12/27 21:06:44;;;;;;;10.30;4.30;;;;;;;7.28;65.80;100111.18;4503258;78;28498;-71
2022/12/27 21:12:46;;;;;;;10.23;3.50;;;;;;;7.08;66.06;100116.23;4438618;78;28544;-75
2022/12/27 21:18:49;;;;;;;9.08;3.95;;;;;;;7.06;66.48;100114.26;4442290;78;28568;-73
2022/12/27 21:24:50;;;;;;;8.73;3.90;;;;;;;7.23;66.16;100111.73;4521128;78;28957;-73
2022/12/27 21:30:55;;;;;;;9.88;3.60;;;;;;;7.33;65.61;100111.48;4447043;78;28493;-72
2022/12/27 21:37:00;;;;;;;9.30;3.67;;;;;;;7.48;65.46;100110.64;4445948;78;28544;-73
2022/12/27 21:43:01;;;;;;;11.53;3.87;;;;;;;7.57;65.29;100113.55;4451806;78;28576;-73
2022/12/27 21:49:06;;;;;;;8.35;3.47;;;;;;;7.68;65.00;100111.75;4529526;77;28517;-72
2022/12/27 21:55:08;;;;;;;8.05;3.17;;;;;;;7.66;64.63;100115.65;4505554;77;28565;-72
2022/12/27 22:01:14;;;;;;;7.75;3.60;;;;;;;7.69;64.92;100117.95;4511009;77;28551;-72
2022/12/27 22:07:15;;;;;;;9.00;3.30;;;;;;;7.54;65.30;100120.62;4514945;77;28496;-73
2022/12/27 22:13:17;;;;;;;6.72;3.17;;;;;;;7.67;65.12;100108.75;4431276;78;28598;-72
2022/12/27 22:19:18;;;;;;;8.88;3.60;;;;;;;7.58;65.39;100109.86;4398221;78;28543;-73
2022/12/27 22:25:19;;;;;;;11.10;3.95;;;;;;;7.64;65.09;100103.78;4425153;79;28632;-72
2022/12/27 22:31:26;;;;;;;8.65;3.20;;;;;;;7.79;65.12;100103.77;4461909;78;28516;-73
2022/12/27 22:37:27;;;;;;;9.10;3.22;;;;;;;7.92;64.65;100105.78;4452824;78;28556;-72
2022/12/27 22:43:28;;;;;;;8.13;3.45;;;;;;;7.99;64.72;100111.72;4443323;79;28536;-72
2022/12/27 22:49:29;;;;;;;8.43;3.60;;;;;;;8.05;64.70;100113.66;4453066;79;28975;-73
2022/12/27 22:55:30;;;;;;;8.75;3.47;;;;;;;8.15;64.24;100118.70;4452362;78;28507;-73
2022/12/27 23:01:32;;;;;;;8.68;3.40;;;;;;;8.21;64.30;100109.39;4457719;78;28607;-73
2022/12/27 23:07:36;;;;;;;7.40;3.40;;;;;;;8.02;64.39;100094.77;4454171;78;28685;-73
2022/12/27 23:13:39;;;;;;;7.17;3.52;;;;;;;8.06;64.76;100082.64;4456650;78;28516;-72
2022/12/27 23:19:40;;;;;;;7.45;3.20;;;;;;;7.84;64.95;100070.23;4453788;79;28520;-72
2022/12/27 23:25:41;;;;;;;8.23;3.70;;;;;;;7.83;65.14;100073.44;4433937;79;28594;-72
2022/12/27 23:31:43;;;;;;;8.80;3.62;;;;;;;7.73;65.44;100079.59;4457002;79;28484;-72
2022/12/27 23:37:44;;;;;;;7.90;3.70;;;;;;;7.80;65.77;100079.15;4439181;78;28539;-73
2022/12/27 23:43:45;;;;;;;7.53;3.55;;;;;;;7.85;65.66;100076.75;4388389;79;28528;-71
2022/12/27 23:49:46;;;;;;;9.63;3.65;;;;;;;7.71;65.63;100076.28;4510054;77;28533;-72
2022/12/27 23:56:08;;;;;;;9.88;3.40;;;;;;;7.59;66.12;100073.23;4406813;79;28527;-71
